KEKN/EKN METAR and TAF weather

Enter ICAO airport designator
Station Type Date Time Source
KEKN METAR 2021/07/24 19:51 UTC NOAA

KEKN 241951Z AUTO VRB03KT 10SM BKN110 30/12 A3008 RMK AO2 SLP175 T03000117


Station Type Date Time Source
KEKN Decoded METAR 2021/07/24 19:51 UTC NOAA

JENNINGS RANDOLPH FIELD, WV, United States (KEKN) 38-53N 079-51W 603M
Jul 24, 2021 - 03:51 PM EDT / 2021.07.24 1951 UTC
Wind: Variable at 3 MPH (3 KT):0
Visibility: 10 mile(s):0
Sky conditions: mostly cloudy
Temperature: 86.0 F (30.0 C)
Dew Point: 53.1 F (11.7 C)
Relative Humidity: 32%
Pressure (altimeter): 30.08 in. Hg (1018 hPa)
ob: KEKN 241951Z AUTO VRB03KT 10SM BKN110 30/12 A3008 RMK AO2 SLP175 T03000117
cycle: 20

Station Type Date Time Source
KEKN TAF 2021/07/24 18:45 UTC NOAA

TAF KEKN 241743Z 2418/2518 29004KT P6SM SCT200
FM250900 00000KT 3SM BR SCT002
FM251300 25007KT P6SM BKN060

Example: see airport list